sensor_id;sensor_type;location;lat;lon;timestamp;P1;durP1;ratioP1;P2;durP2;ratioP2
22287;SDS011;11312;51.464;6.968;2022-08-21T00:00:26;2.10;;;1.17;;
22287;SDS011;11312;51.464;6.968;2022-08-21T00:02:54;1.70;;;0.90;;
22287;SDS011;11312;51.464;6.968;2022-08-21T00:05:24;4.05;;;1.77;;
22287;SDS011;11312;51.464;6.968;2022-08-21T00:07:51;3.08;;;1.38;;
22287;SDS011;11312;51.464;6.968;2022-08-21T00:10:17;2.10;;;1.10;;
22287;SDS011;11312;51.464;6.968;2022-08-21T00:12:43;0.68;;;0.68;;
22287;SDS011;11312;51.464;6.968;2022-08-21T00:15:11;5.00;;;1.98;;
22287;SDS011;11312;51.464;6.968;2022-08-21T00:17:41;3.63;;;1.50;;
22287;SDS011;11312;51.464;6.968;2022-08-21T00:20:07;1.80;;;0.90;;
22287;SDS011;11312;51.464;6.968;2022-08-21T00:22:35;3.65;;;1.50;;
22287;SDS011;11312;51.464;6.968;2022-08-21T00:25:02;1.35;;;0.90;;
22287;SDS011;11312;51.464;6.968;2022-08-21T00:27:29;1.77;;;1.10;;
22287;SDS011;11312;51.464;6.968;2022-08-21T00:29:55;1.83;;;0.98;;
22287;SDS011;11312;51.464;6.968;2022-08-21T00:32:21;1.75;;;1.25;;
22287;SDS011;11312;51.464;6.968;2022-08-21T00:34:48;2.20;;;1.13;;
22287;SDS011;11312;51.464;6.968;2022-08-21T00:37:14;1.85;;;1.13;;
22287;SDS011;11312;51.464;6.968;2022-08-21T00:39:39;2.17;;;1.25;;
22287;SDS011;11312;51.464;6.968;2022-08-21T00:42:05;1.98;;;1.23;;
22287;SDS011;11312;51.464;6.968;2022-08-21T00:44:31;1.45;;;1.35;;
22287;SDS011;11312;51.464;6.968;2022-08-21T00:46:57;0.95;;;0.90;;
22287;SDS011;11312;51.464;6.968;2022-08-21T00:49:22;3.55;;;1.67;;
22287;SDS011;11312;51.464;6.968;2022-08-21T00:51:52;1.98;;;1.10;;
22287;SDS011;11312;51.464;6.968;2022-08-21T00:54:24;1.45;;;0.90;;
22287;SDS011;11312;51.464;6.968;2022-08-21T00:56:56;3.03;;;1.15;;
22287;SDS011;11312;51.464;6.968;2022-08-21T00:59:25;1.25;;;0.90;;
22287;SDS011;11312;51.464;6.968;2022-08-21T01:01:53;1.73;;;1.17;;
22287;SDS011;11312;51.464;6.968;2022-08-21T01:04:19;1.20;;;0.90;;
22287;SDS011;11312;51.464;6.968;2022-08-21T01:06:46;3.35;;;1.50;;
22287;SDS011;11312;51.464;6.968;2022-08-21T01:09:12;0.98;;;0.90;;
22287;SDS011;11312;51.464;6.968;2022-08-21T01:11:38;2.17;;;1.27;;
22287;SDS011;11312;51.464;6.968;2022-08-21T01:14:06;1.67;;;0.98;;
22287;SDS011;11312;51.464;6.968;2022-08-21T01:16:32;1.55;;;1.05;;
22287;SDS011;11312;51.464;6.968;2022-08-21T01:18:58;2.15;;;1.27;;
22287;SDS011;11312;51.464;6.968;2022-08-21T01:21:25;3.28;;;1.65;;
22287;SDS011;11312;51.464;6.968;2022-08-21T01:23:52;1.73;;;1.00;;
22287;SDS011;11312;51.464;6.968;2022-08-21T01:26:21;3.42;;;1.45;;
22287;SDS011;11312;51.464;6.968;2022-08-21T01:28:52;1.65;;;1.10;;
22287;SDS011;11312;51.464;6.968;2022-08-21T01:31:24;3.00;;;1.45;;
22287;SDS011;11312;51.464;6.968;2022-08-21T01:33:53;1.85;;;1.20;;
22287;SDS011;11312;51.464;6.968;2022-08-21T01:36:19;1.63;;;1.50;;
22287;SDS011;11312;51.464;6.968;2022-08-21T01:38:45;4.05;;;1.98;;
22287;SDS011;11312;51.464;6.968;2022-08-21T01:41:12;0.98;;;0.85;;
22287;SDS011;11312;51.464;6.968;2022-08-21T01:43:38;2.15;;;1.20;;
22287;SDS011;11312;51.464;6.968;2022-08-21T01:46:04;1.98;;;1.30;;
22287;SDS011;11312;51.464;6.968;2022-08-21T01:48:29;1.60;;;0.90;;
22287;SDS011;11312;51.464;6.968;2022-08-21T01:50:55;1.77;;;1.20;;
22287;SDS011;11312;51.464;6.968;2022-08-21T01:53:21;1.55;;;0.93;;
22287;SDS011;11312;51.464;6.968;2022-08-21T01:55:47;1.45;;;1.05;;
22287;SDS011;11312;51.464;6.968;2022-08-21T01:58:12;0.98;;;0.80;;
22287;SDS011;11312;51.464;6.968;2022-08-21T02:00:38;2.05;;;0.98;;
22287;SDS011;11312;51.464;6.968;2022-08-21T02:03:04;2.65;;;1.45;;
22287;SDS011;11312;51.464;6.968;2022-08-21T02:05:30;6.95;;;2.05;;
22287;SDS011;11312;51.464;6.968;2022-08-21T02:07:56;1.45;;;1.10;;
22287;SDS011;11312;51.464;6.968;2022-08-21T02:10:25;1.08;;;1.00;;
22287;SDS011;11312;51.464;6.968;2022-08-21T02:12:54;2.75;;;1.25;;
22287;SDS011;11312;51.464;6.968;2022-08-21T02:15:20;2.05;;;1.00;;
22287;SDS011;11312;51.464;6.968;2022-08-21T02:17:50;2.60;;;1.67;;
22287;SDS011;11312;51.464;6.968;2022-08-21T02:20:31;0.82;;;0.82;;
22287;SDS011;11312;51.464;6.968;2022-08-21T02:22:59;2.63;;;1.20;;
22287;SDS011;11312;51.464;6.968;2022-08-21T02:25:25;1.77;;;1.23;;
22287;SDS011;11312;51.464;6.968;2022-08-21T02:27:52;1.35;;;1.00;;
22287;SDS011;11312;51.464;6.968;2022-08-21T02:30:24;2.55;;;1.30;;
22287;SDS011;11312;51.464;6.968;2022-08-21T02:32:54;1.52;;;1.08;;
22287;SDS011;11312;51.464;6.968;2022-08-21T02:35:20;2.50;;;1.35;;
22287;SDS011;11312;51.464;6.968;2022-08-21T02:37:53;4.68;;;1.75;;
22287;SDS011;11312;51.464;6.968;2022-08-21T02:40:25;2.55;;;1.60;;
22287;SDS011;11312;51.464;6.968;2022-08-21T02:42:52;0.80;;;0.80;;
22287;SDS011;11312;51.464;6.968;2022-08-21T02:45:19;1.17;;;1.00;;
22287;SDS011;11312;51.464;6.968;2022-08-21T02:47:52;2.83;;;1.50;;
22287;SDS011;11312;51.464;6.968;2022-08-21T02:50:20;2.63;;;1.40;;
22287;SDS011;11312;51.464;6.968;2022-08-21T02:52:47;2.70;;;1.35;;
22287;SDS011;11312;51.464;6.968;2022-08-21T02:55:14;2.42;;;1.45;;
22287;SDS011;11312;51.464;6.968;2022-08-21T02:57:40;2.53;;;1.40;;
22287;SDS011;11312;51.464;6.968;2022-08-21T03:00:06;1.35;;;0.90;;
22287;SDS011;11312;51.464;6.968;2022-08-21T03:02:33;2.13;;;1.08;;
22287;SDS011;11312;51.464;6.968;2022-08-21T03:04:59;1.45;;;1.00;;
22287;SDS011;11312;51.464;6.968;2022-08-21T03:07:25;1.13;;;1.00;;
22287;SDS011;11312;51.464;6.968;2022-08-21T03:09:51;2.38;;;1.55;;
22287;SDS011;11312;51.464;6.968;2022-08-21T03:12:17;1.83;;;1.23;;
22287;SDS011;11312;51.464;6.968;2022-08-21T03:14:43;1.67;;;1.15;;
22287;SDS011;11312;51.464;6.968;2022-08-21T03:17:08;5.70;;;1.60;;
22287;SDS011;11312;51.464;6.968;2022-08-21T03:19:34;2.08;;;1.13;;
22287;SDS011;11312;51.464;6.968;2022-08-21T03:22:00;1.30;;;1.08;;
22287;SDS011;11312;51.464;6.968;2022-08-21T03:24:25;2.58;;;1.60;;
22287;SDS011;11312;51.464;6.968;2022-08-21T03:26:51;3.33;;;1.30;;
22287;SDS011;11312;51.464;6.968;2022-08-21T03:29:17;3.95;;;1.63;;
22287;SDS011;11312;51.464;6.968;2022-08-21T03:31:42;1.48;;;1.02;;
22287;SDS011;11312;51.464;6.968;2022-08-21T03:34:08;3.05;;;1.88;;
22287;SDS011;11312;51.464;6.968;2022-08-21T03:36:35;2.75;;;1.55;;
22287;SDS011;11312;51.464;6.968;2022-08-21T03:39:00;2.63;;;1.55;;
22287;SDS011;11312;51.464;6.968;2022-08-21T03:41:26;1.42;;;1.10;;
22287;SDS011;11312;51.464;6.968;2022-08-21T03:43:52;1.40;;;1.02;;
22287;SDS011;11312;51.464;6.968;2022-08-21T03:46:18;3.38;;;1.40;;
22287;SDS011;11312;51.464;6.968;2022-08-21T03:48:43;1.75;;;1.02;;
22287;SDS011;11312;51.464;6.968;2022-08-21T03:51:10;1.88;;;1.10;;
22287;SDS011;11312;51.464;6.968;2022-08-21T03:53:35;2.30;;;1.17;;
22287;SDS011;11312;51.464;6.968;2022-08-21T03:56:01;2.35;;;1.20;;
22287;SDS011;11312;51.464;6.968;2022-08-21T03:58:28;1.75;;;1.00;;
22287;SDS011;11312;51.464;6.968;2022-08-21T04:00:55;1.98;;;1.13;;
22287;SDS011;11312;51.464;6.968;2022-08-21T04:03:23;0.93;;;0.93;;
22287;SDS011;11312;51.464;6.968;2022-08-21T04:05:49;1.35;;;1.00;;
22287;SDS011;11312;51.464;6.968;2022-08-21T04:08:15;1.60;;;1.13;;
22287;SDS011;11312;51.464;6.968;2022-08-21T04:10:46;1.45;;;1.10;;
22287;SDS011;11312;51.464;6.968;2022-08-21T04:13:14;3.15;;;1.27;;
22287;SDS011;11312;51.464;6.968;2022-08-21T04:15:40;1.83;;;1.25;;
22287;SDS011;11312;51.464;6.968;2022-08-21T04:18:06;2.95;;;1.27;;
22287;SDS011;11312;51.464;6.968;2022-08-21T04:20:33;3.00;;;1.38;;
22287;SDS011;11312;51.464;6.968;2022-08-21T04:23:00;2.25;;;1.40;;
22287;SDS011;11312;51.464;6.968;2022-08-21T04:25:26;0.82;;;0.82;;
22287;SDS011;11312;51.464;6.968;2022-08-21T04:27:52;3.10;;;1.52;;
22287;SDS011;11312;51.464;6.968;2022-08-21T04:30:18;3.85;;;1.60;;
22287;SDS011;11312;51.464;6.968;2022-08-21T04:32:47;2.88;;;1.75;;
22287;SDS011;11312;51.464;6.968;2022-08-21T04:35:16;3.30;;;1.45;;
22287;SDS011;11312;51.464;6.968;2022-08-21T04:37:43;2.25;;;1.35;;
22287;SDS011;11312;51.464;6.968;2022-08-21T04:40:10;1.02;;;0.93;;
22287;SDS011;11312;51.464;6.968;2022-08-21T04:42:43;1.85;;;1.15;;
22287;SDS011;11312;51.464;6.968;2022-08-21T04:45:21;4.28;;;1.25;;
22287;SDS011;11312;51.464;6.968;2022-08-21T04:48:14;2.13;;;1.27;;
22287;SDS011;11312;51.464;6.968;2022-08-21T04:56:01;2.13;;;1.23;;
22287;SDS011;11312;51.464;6.968;2022-08-21T04:58:33;1.10;;;1.00;;
22287;SDS011;11312;51.464;6.968;2022-08-21T05:00:59;1.75;;;1.10;;
22287;SDS011;11312;51.464;6.968;2022-08-21T05:03:26;2.28;;;1.30;;
22287;SDS011;11312;51.464;6.968;2022-08-21T05:05:53;1.83;;;1.10;;
22287;SDS011;11312;51.464;6.968;2022-08-21T05:08:19;4.35;;;1.67;;
22287;SDS011;11312;51.464;6.968;2022-08-21T05:10:48;1.40;;;1.13;;
22287;SDS011;11312;51.464;6.968;2022-08-21T05:13:14;2.53;;;1.40;;
22287;SDS011;11312;51.464;6.968;2022-08-21T05:15:41;2.55;;;1.38;;
22287;SDS011;11312;51.464;6.968;2022-08-21T05:18:07;5.05;;;2.17;;
22287;SDS011;11312;51.464;6.968;2022-08-21T05:20:34;4.65;;;1.88;;
22287;SDS011;11312;51.464;6.968;2022-08-21T05:23:00;3.13;;;1.33;;
22287;SDS011;11312;51.464;6.968;2022-08-21T05:25:26;3.70;;;1.58;;
22287;SDS011;11312;51.464;6.968;2022-08-21T05:27:52;5.25;;;2.13;;
22287;SDS011;11312;51.464;6.968;2022-08-21T05:30:18;5.88;;;2.28;;
22287;SDS011;11312;51.464;6.968;2022-08-21T05:32:45;6.20;;;2.10;;
22287;SDS011;11312;51.464;6.968;2022-08-21T05:35:12;3.05;;;1.42;;
22287;SDS011;11312;51.464;6.968;2022-08-21T05:37:38;3.45;;;1.48;;
22287;SDS011;11312;51.464;6.968;2022-08-21T05:40:05;4.65;;;1.92;;
22287;SDS011;11312;51.464;6.968;2022-08-21T05:42:33;3.95;;;1.70;;
22287;SDS011;11312;51.464;6.968;2022-08-21T05:44:58;3.63;;;1.67;;
22287;SDS011;11312;51.464;6.968;2022-08-21T05:47:24;2.83;;;1.30;;
22287;SDS011;11312;51.464;6.968;2022-08-21T05:49:50;3.70;;;1.65;;
22287;SDS011;11312;51.464;6.968;2022-08-21T05:52:19;5.45;;;2.25;;
22287;SDS011;11312;51.464;6.968;2022-08-21T05:54:46;2.75;;;1.55;;
22287;SDS011;11312;51.464;6.968;2022-08-21T05:57:11;2.00;;;1.20;;
22287;SDS011;11312;51.464;6.968;2022-08-21T05:59:37;2.28;;;1.33;;
22287;SDS011;11312;51.464;6.968;2022-08-21T06:02:03;3.20;;;1.40;;
22287;SDS011;11312;51.464;6.968;2022-08-21T06:04:29;4.95;;;1.80;;
22287;SDS011;11312;51.464;6.968;2022-08-21T06:06:54;2.47;;;1.20;;
22287;SDS011;11312;51.464;6.968;2022-08-21T06:09:20;3.85;;;2.30;;
22287;SDS011;11312;51.464;6.968;2022-08-21T06:11:46;2.10;;;1.10;;
22287;SDS011;11312;51.464;6.968;2022-08-21T06:14:13;3.83;;;1.50;;
22287;SDS011;11312;51.464;6.968;2022-08-21T06:16:39;1.73;;;1.15;;
22287;SDS011;11312;51.464;6.968;2022-08-21T06:19:05;1.85;;;1.17;;
22287;SDS011;11312;51.464;6.968;2022-08-21T06:21:31;2.35;;;1.20;;
22287;SDS011;11312;51.464;6.968;2022-08-21T06:23:56;4.22;;;1.23;;
22287;SDS011;11312;51.464;6.968;2022-08-21T06:26:22;5.00;;;1.98;;
22287;SDS011;11312;51.464;6.968;2022-08-21T06:28:49;2.78;;;1.23;;
22287;SDS011;11312;51.464;6.968;2022-08-21T06:31:15;1.77;;;1.17;;
22287;SDS011;11312;51.464;6.968;2022-08-21T06:33:46;4.82;;;2.05;;
22287;SDS011;11312;51.464;6.968;2022-08-21T06:36:12;4.18;;;1.67;;
22287;SDS011;11312;51.464;6.968;2022-08-21T06:38:38;3.65;;;1.77;;
22287;SDS011;11312;51.464;6.968;2022-08-21T06:41:04;1.58;;;1.05;;
22287;SDS011;11312;51.464;6.968;2022-08-21T06:43:30;2.60;;;1.30;;
22287;SDS011;11312;51.464;6.968;2022-08-21T06:45:56;2.20;;;1.38;;
22287;SDS011;11312;51.464;6.968;2022-08-21T06:48:21;1.75;;;1.15;;
22287;SDS011;11312;51.464;6.968;2022-08-21T06:50:47;3.33;;;1.50;;
22287;SDS011;11312;51.464;6.968;2022-08-21T06:53:14;3.38;;;1.50;;
22287;SDS011;11312;51.464;6.968;2022-08-21T06:55:42;2.65;;;1.30;;
22287;SDS011;11312;51.464;6.968;2022-08-21T06:58:08;2.92;;;1.40;;
22287;SDS011;11312;51.464;6.968;2022-08-21T07:00:34;4.50;;;1.85;;
22287;SDS011;11312;51.464;6.968;2022-08-21T07:03:04;2.20;;;1.45;;
22287;SDS011;11312;51.464;6.968;2022-08-21T07:05:30;1.98;;;1.10;;
22287;SDS011;11312;51.464;6.968;2022-08-21T07:07:56;2.42;;;1.20;;
22287;SDS011;11312;51.464;6.968;2022-08-21T07:10:22;2.83;;;1.38;;
22287;SDS011;11312;51.464;6.968;2022-08-21T07:12:50;1.65;;;1.00;;
22287;SDS011;11312;51.464;6.968;2022-08-21T07:15:15;2.22;;;1.23;;
22287;SDS011;11312;51.464;6.968;2022-08-21T07:17:41;2.35;;;1.05;;
22287;SDS011;11312;51.464;6.968;2022-08-21T07:20:07;2.10;;;1.05;;
22287;SDS011;11312;51.464;6.968;2022-08-21T07:22:33;1.80;;;1.30;;
22287;SDS011;11312;51.464;6.968;2022-08-21T07:25:01;1.13;;;0.90;;
22287;SDS011;11312;51.464;6.968;2022-08-21T07:27:27;7.88;;;1.90;;
22287;SDS011;11312;51.464;6.968;2022-08-21T07:29:53;1.70;;;0.95;;
22287;SDS011;11312;51.464;6.968;2022-08-21T07:32:18;2.13;;;1.30;;
22287;SDS011;11312;51.464;6.968;2022-08-21T07:34:44;0.90;;;0.75;;
22287;SDS011;11312;51.464;6.968;2022-08-21T07:37:10;0.88;;;0.82;;
22287;SDS011;11312;51.464;6.968;2022-08-21T07:39:36;0.68;;;0.68;;
22287;SDS011;11312;51.464;6.968;2022-08-21T07:42:01;3.38;;;1.45;;
22287;SDS011;11312;51.464;6.968;2022-08-21T07:44:28;1.75;;;1.15;;
22287;SDS011;11312;51.464;6.968;2022-08-21T07:46:53;2.28;;;1.10;;
22287;SDS011;11312;51.464;6.968;2022-08-21T07:49:19;3.33;;;1.55;;
22287;SDS011;11312;51.464;6.968;2022-08-21T07:51:45;4.30;;;1.73;;
22287;SDS011;11312;51.464;6.968;2022-08-21T07:54:11;0.50;;;0.50;;
22287;SDS011;11312;51.464;6.968;2022-08-21T07:56:37;3.40;;;1.38;;
22287;SDS011;11312;51.464;6.968;2022-08-21T07:59:02;1.75;;;0.98;;
22287;SDS011;11312;51.464;6.968;2022-08-21T08:01:28;1.95;;;1.08;;
22287;SDS011;11312;51.464;6.968;2022-08-21T08:03:55;1.08;;;0.85;;
22287;SDS011;11312;51.464;6.968;2022-08-21T08:06:21;2.78;;;0.88;;
22287;SDS011;11312;51.464;6.968;2022-08-21T08:08:48;3.63;;;1.50;;
22287;SDS011;11312;51.464;6.968;2022-08-21T08:11:13;2.38;;;1.15;;
22287;SDS011;11312;51.464;6.968;2022-08-21T08:13:47;5.25;;;1.60;;
22287;SDS011;11312;51.464;6.968;2022-08-21T08:16:15;1.10;;;0.88;;
22287;SDS011;11312;51.464;6.968;2022-08-21T08:18:41;5.25;;;2.17;;
22287;SDS011;11312;51.464;6.968;2022-08-21T08:21:08;2.45;;;1.15;;
22287;SDS011;11312;51.464;6.968;2022-08-21T08:23:34;0.50;;;0.50;;
22287;SDS011;11312;51.464;6.968;2022-08-21T08:26:00;0.60;;;0.60;;
22287;SDS011;11312;51.464;6.968;2022-08-21T08:28:27;4.00;;;1.55;;
22287;SDS011;11312;51.464;6.968;2022-08-21T08:30:53;1.20;;;0.80;;
22287;SDS011;11312;51.464;6.968;2022-08-21T08:33:20;1.40;;;0.75;;
22287;SDS011;11312;51.464;6.968;2022-08-21T08:35:46;0.35;;;0.35;;
22287;SDS011;11312;51.464;6.968;2022-08-21T08:38:14;4.05;;;1.15;;
22287;SDS011;11312;51.464;6.968;2022-08-21T08:40:46;0.52;;;0.52;;
22287;SDS011;11312;51.464;6.968;2022-08-21T08:43:25;1.25;;;0.73;;
22287;SDS011;11312;51.464;6.968;2022-08-21T08:45:53;9.40;;;1.25;;
22287;SDS011;11312;51.464;6.968;2022-08-21T08:48:36;2.08;;;0.95;;
22287;SDS011;11312;51.464;6.968;2022-08-21T08:51:04;0.60;;;0.60;;
22287;SDS011;11312;51.464;6.968;2022-08-21T08:53:47;3.38;;;1.85;;
22287;SDS011;11312;51.464;6.968;2022-08-21T08:56:26;1.48;;;0.73;;
22287;SDS011;11312;51.464;6.968;2022-08-21T08:58:55;0.70;;;0.50;;
22287;SDS011;11312;51.464;6.968;2022-08-21T09:01:25;0.52;;;0.50;;
22287;SDS011;11312;51.464;6.968;2022-08-21T09:03:51;0.75;;;0.60;;
22287;SDS011;11312;51.464;6.968;2022-08-21T09:27:50;0.63;;;0.43;;
22287;SDS011;11312;51.464;6.968;2022-08-21T09:30:15;5.03;;;1.73;;
22287;SDS011;11312;51.464;6.968;2022-08-21T09:32:42;0.93;;;0.88;;
22287;SDS011;11312;51.464;6.968;2022-08-21T09:35:10;1.85;;;0.68;;
22287;SDS011;11312;51.464;6.968;2022-08-21T09:37:46;0.30;;;0.30;;
22287;SDS011;11312;51.464;6.968;2022-08-21T09:40:23;0.95;;;0.63;;
22287;SDS011;11312;51.464;6.968;2022-08-21T09:43:00;1.10;;;0.60;;
22287;SDS011;11312;51.464;6.968;2022-08-21T09:45:46;0.40;;;0.40;;
22287;SDS011;11312;51.464;6.968;2022-08-21T09:48:14;0.63;;;0.28;;
22287;SDS011;11312;51.464;6.968;2022-08-21T09:50:45;0.38;;;0.38;;
22287;SDS011;11312;51.464;6.968;2022-08-21T09:53:30;0.55;;;0.38;;
22287;SDS011;11312;51.464;6.968;2022-08-21T09:56:01;0.80;;;0.65;;
22287;SDS011;11312;51.464;6.968;2022-08-21T09:58:48;0.52;;;0.38;;
22287;SDS011;11312;51.464;6.968;2022-08-21T10:01:16;0.32;;;0.32;;
22287;SDS011;11312;51.464;6.968;2022-08-21T10:03:46;0.75;;;0.40;;
22287;SDS011;11312;51.464;6.968;2022-08-21T10:06:26;0.20;;;0.20;;
22287;SDS011;11312;51.464;6.968;2022-08-21T10:11:35;0.60;;;0.40;;
22287;SDS011;11312;51.464;6.968;2022-08-21T10:19:40;0.85;;;0.47;;
22287;SDS011;11312;51.464;6.968;2022-08-21T10:27:33;0.60;;;0.22;;
22287;SDS011;11312;51.464;6.968;2022-08-21T10:30:29;1.02;;;0.63;;
22287;SDS011;11312;51.464;6.968;2022-08-21T10:33:05;0.80;;;0.32;;
22287;SDS011;11312;51.464;6.968;2022-08-21T10:35:59;0.93;;;0.43;;
22287;SDS011;11312;51.464;6.968;2022-08-21T10:51:54;0.20;;;0.15;;
22287;SDS011;11312;51.464;6.968;2022-08-21T11:00:06;0.10;;;0.10;;
22287;SDS011;11312;51.464;6.968;2022-08-21T11:02:38;0.20;;;0.20;;
22287;SDS011;11312;51.464;6.968;2022-08-21T11:05:08;0.10;;;0.10;;
22287;SDS011;11312;51.464;6.968;2022-08-21T11:07:53;1.02;;;0.25;;
22287;SDS011;11312;51.464;6.968;2022-08-21T11:10:24;0.10;;;0.10;;
22287;SDS011;11312;51.464;6.968;2022-08-21T11:15:29;0.00;;;0.00;;
22287;SDS011;11312;51.464;6.968;2022-08-21T11:24:03;0.63;;;0.30;;
22287;SDS011;11312;51.464;6.968;2022-08-21T11:26:43;0.00;;;0.00;;
22287;SDS011;11312;51.464;6.968;2022-08-21T11:29:20;1.42;;;0.57;;
22287;SDS011;11312;51.464;6.968;2022-08-21T11:35:09;0.13;;;0.13;;
22287;SDS011;11312;51.464;6.968;2022-08-21T11:41:04;0.75;;;0.32;;
22287;SDS011;11312;51.464;6.968;2022-08-21T11:44:10;1.13;;;0.50;;
22287;SDS011;11312;51.464;6.968;2022-08-21T11:52:26;0.05;;;0.05;;
22287;SDS011;11312;51.464;6.968;2022-08-21T11:55:00;0.20;;;0.20;;
22287;SDS011;11312;51.464;6.968;2022-08-21T12:02:52;0.03;;;0.03;;
22287;SDS011;11312;51.464;6.968;2022-08-21T12:10:34;0.63;;;0.30;;
22287;SDS011;11312;51.464;6.968;2022-08-21T12:13:11;0.00;;;0.00;;
22287;SDS011;11312;51.464;6.968;2022-08-21T12:15:49;2.28;;;1.27;;
22287;SDS011;11312;51.464;6.968;2022-08-21T12:18:30;0.10;;;0.10;;
22287;SDS011;11312;51.464;6.968;2022-08-21T12:20:58;0.75;;;0.52;;
22287;SDS011;11312;51.464;6.968;2022-08-21T12:23:46;0.43;;;0.20;;
22287;SDS011;11312;51.464;6.968;2022-08-21T12:26:33;0.85;;;0.43;;
22287;SDS011;11312;51.464;6.968;2022-08-21T12:32:04;0.60;;;0.22;;
22287;SDS011;11312;51.464;6.968;2022-08-21T12:35:14;1.20;;;0.52;;
22287;SDS011;11312;51.464;6.968;2022-08-21T12:37:47;0.00;;;0.00;;
22287;SDS011;11312;51.464;6.968;2022-08-21T12:40:29;0.00;;;0.00;;
22287;SDS011;11312;51.464;6.968;2022-08-21T12:43:05;0.10;;;0.10;;
22287;SDS011;11312;51.464;6.968;2022-08-21T12:45:42;0.00;;;0.00;;
22287;SDS011;11312;51.464;6.968;2022-08-21T12:48:15;0.13;;;0.10;;
22287;SDS011;11312;51.464;6.968;2022-08-21T12:50:49;0.10;;;0.10;;
22287;SDS011;11312;51.464;6.968;2022-08-21T12:53:35;0.35;;;0.10;;
22287;SDS011;11312;51.464;6.968;2022-08-21T12:56:14;0.00;;;0.00;;
22287;SDS011;11312;51.464;6.968;2022-08-21T12:58:48;0.00;;;0.00;;
22287;SDS011;11312;51.464;6.968;2022-08-21T13:01:23;0.00;;;0.00;;
22287;SDS011;11312;51.464;6.968;2022-08-21T13:03:57;2.10;;;0.45;;
22287;SDS011;11312;51.464;6.968;2022-08-21T13:06:26;0.28;;;0.08;;
22287;SDS011;11312;51.464;6.968;2022-08-21T13:08:55;0.65;;;0.10;;
22287;SDS011;11312;51.464;6.968;2022-08-21T13:11:24;0.95;;;0.35;;
22287;SDS011;11312;51.464;6.968;2022-08-21T13:13:53;0.15;;;0.13;;
22287;SDS011;11312;51.464;6.968;2022-08-21T13:16:22;0.00;;;0.00;;
22287;SDS011;11312;51.464;6.968;2022-08-21T13:18:53;0.47;;;0.25;;
22287;SDS011;11312;51.464;6.968;2022-08-21T13:21:20;0.85;;;0.30;;
22287;SDS011;11312;51.464;6.968;2022-08-21T13:23:46;0.10;;;0.10;;
22287;SDS011;11312;51.464;6.968;2022-08-21T13:26:15;0.20;;;0.17;;
22287;SDS011;11312;51.464;6.968;2022-08-21T13:28:45;0.57;;;0.20;;
22287;SDS011;11312;51.464;6.968;2022-08-21T13:31:12;0.38;;;0.10;;
22287;SDS011;11312;51.464;6.968;2022-08-21T13:33:53;0.10;;;0.10;;
22287;SDS011;11312;51.464;6.968;2022-08-21T13:36:21;0.80;;;0.15;;
22287;SDS011;11312;51.464;6.968;2022-08-21T13:38:51;0.15;;;0.10;;
22287;SDS011;11312;51.464;6.968;2022-08-21T13:43:56;0.93;;;0.28;;
22287;SDS011;11312;51.464;6.968;2022-08-21T13:46:32;0.03;;;0.03;;
22287;SDS011;11312;51.464;6.968;2022-08-21T13:49:00;0.45;;;0.10;;
22287;SDS011;11312;51.464;6.968;2022-08-21T13:51:28;0.55;;;0.28;;
22287;SDS011;11312;51.464;6.968;2022-08-21T13:53:56;0.00;;;0.00;;
22287;SDS011;11312;51.464;6.968;2022-08-21T13:56:29;0.20;;;0.20;;
22287;SDS011;11312;51.464;6.968;2022-08-21T13:59:06;0.45;;;0.20;;
22287;SDS011;11312;51.464;6.968;2022-08-21T14:01:33;0.10;;;0.10;;
22287;SDS011;11312;51.464;6.968;2022-08-21T14:04:25;0.00;;;0.00;;
22287;SDS011;11312;51.464;6.968;2022-08-21T14:06:51;0.10;;;0.10;;
22287;SDS011;11312;51.464;6.968;2022-08-21T14:11:46;2.70;;;0.95;;
22287;SDS011;11312;51.464;6.968;2022-08-21T14:14:25;2.60;;;1.00;;
22287;SDS011;11312;51.464;6.968;2022-08-21T14:16:58;0.15;;;0.15;;
22287;SDS011;11312;51.464;6.968;2022-08-21T14:19:40;4.35;;;1.52;;
22287;SDS011;11312;51.464;6.968;2022-08-21T14:27:53;0.47;;;0.17;;
22287;SDS011;11312;51.464;6.968;2022-08-21T14:30:35;0.73;;;0.35;;
22287;SDS011;11312;51.464;6.968;2022-08-21T14:33:03;1.05;;;0.50;;
22287;SDS011;11312;51.464;6.968;2022-08-21T14:35:34;0.55;;;0.35;;
22287;SDS011;11312;51.464;6.968;2022-08-21T14:37:59;0.20;;;0.20;;
22287;SDS011;11312;51.464;6.968;2022-08-21T14:40:26;0.85;;;0.40;;
22287;SDS011;11312;51.464;6.968;2022-08-21T14:42:52;0.25;;;0.25;;
22287;SDS011;11312;51.464;6.968;2022-08-21T14:45:27;0.20;;;0.20;;
22287;SDS011;11312;51.464;6.968;2022-08-21T14:47:55;8.63;;;1.38;;
22287;SDS011;11312;51.464;6.968;2022-08-21T14:50:22;0.20;;;0.20;;
22287;SDS011;11312;51.464;6.968;2022-08-21T14:52:48;2.25;;;1.00;;
22287;SDS011;11312;51.464;6.968;2022-08-21T14:55:14;1.17;;;0.47;;
22287;SDS011;11312;51.464;6.968;2022-08-21T14:57:42;1.92;;;1.27;;
22287;SDS011;11312;51.464;6.968;2022-08-21T15:00:11;0.77;;;0.40;;
22287;SDS011;11312;51.464;6.968;2022-08-21T15:02:41;0.20;;;0.20;;
22287;SDS011;11312;51.464;6.968;2022-08-21T15:05:07;12.85;;;1.88;;
22287;SDS011;11312;51.464;6.968;2022-08-21T15:07:33;0.75;;;0.40;;
22287;SDS011;11312;51.464;6.968;2022-08-21T15:09:59;0.13;;;0.13;;
22287;SDS011;11312;51.464;6.968;2022-08-21T15:12:24;0.20;;;0.20;;
22287;SDS011;11312;51.464;6.968;2022-08-21T15:14:50;0.22;;;0.22;;
22287;SDS011;11312;51.464;6.968;2022-08-21T15:17:16;1.60;;;0.40;;
22287;SDS011;11312;51.464;6.968;2022-08-21T15:19:42;0.20;;;0.20;;
22287;SDS011;11312;51.464;6.968;2022-08-21T15:22:08;0.43;;;0.30;;
22287;SDS011;11312;51.464;6.968;2022-08-21T15:24:33;0.20;;;0.20;;
22287;SDS011;11312;51.464;6.968;2022-08-21T15:27:00;1.10;;;0.40;;
22287;SDS011;11312;51.464;6.968;2022-08-21T15:29:27;0.10;;;0.10;;
22287;SDS011;11312;51.464;6.968;2022-08-21T15:31:55;0.43;;;0.30;;
22287;SDS011;11312;51.464;6.968;2022-08-21T15:34:26;0.20;;;0.20;;
22287;SDS011;11312;51.464;6.968;2022-08-21T15:36:53;0.52;;;0.45;;
22287;SDS011;11312;51.464;6.968;2022-08-21T15:39:23;0.45;;;0.35;;
22287;SDS011;11312;51.464;6.968;2022-08-21T15:41:50;0.65;;;0.30;;
22287;SDS011;11312;51.464;6.968;2022-08-21T15:44:15;1.95;;;0.82;;
22287;SDS011;11312;51.464;6.968;2022-08-21T15:46:41;0.38;;;0.25;;
22287;SDS011;11312;51.464;6.968;2022-08-21T15:49:09;1.88;;;0.40;;
22287;SDS011;11312;51.464;6.968;2022-08-21T15:51:35;0.20;;;0.20;;
22287;SDS011;11312;51.464;6.968;2022-08-21T15:54:01;0.20;;;0.20;;
22287;SDS011;11312;51.464;6.968;2022-08-21T15:56:32;0.25;;;0.25;;
22287;SDS011;11312;51.464;6.968;2022-08-21T15:59:00;2.80;;;0.75;;
22287;SDS011;11312;51.464;6.968;2022-08-21T16:01:31;0.55;;;0.43;;
22287;SDS011;11312;51.464;6.968;2022-08-21T16:03:58;1.85;;;0.93;;
22287;SDS011;11312;51.464;6.968;2022-08-21T16:06:24;1.55;;;0.60;;
22287;SDS011;11312;51.464;6.968;2022-08-21T16:08:50;0.28;;;0.25;;
22287;SDS011;11312;51.464;6.968;2022-08-21T16:11:15;0.20;;;0.20;;
22287;SDS011;11312;51.464;6.968;2022-08-21T16:13:42;1.45;;;0.60;;
22287;SDS011;11312;51.464;6.968;2022-08-21T16:16:11;0.57;;;0.40;;
22287;SDS011;11312;51.464;6.968;2022-08-21T16:18:39;0.95;;;0.63;;
22287;SDS011;11312;51.464;6.968;2022-08-21T16:21:05;0.30;;;0.30;;
22287;SDS011;11312;51.464;6.968;2022-08-21T16:23:32;2.08;;;0.75;;
22287;SDS011;11312;51.464;6.968;2022-08-21T16:25:59;0.60;;;0.45;;
22287;SDS011;11312;51.464;6.968;2022-08-21T16:28:25;0.30;;;0.30;;
22287;SDS011;11312;51.464;6.968;2022-08-21T16:30:51;0.75;;;0.60;;
22287;SDS011;11312;51.464;6.968;2022-08-21T16:33:29;0.20;;;0.20;;
22287;SDS011;11312;51.464;6.968;2022-08-21T16:36:01;0.52;;;0.47;;
22287;SDS011;11312;51.464;6.968;2022-08-21T16:38:28;0.98;;;0.50;;
22287;SDS011;11312;51.464;6.968;2022-08-21T16:40:55;1.35;;;0.47;;
22287;SDS011;11312;51.464;6.968;2022-08-21T16:43:24;0.55;;;0.30;;